Time;durP1;ratioP1;P1;durP2;ratioP2;P2;SDS_P1;SDS_P2;PMS_P1;PMS_P2;Temp;Humidity;BMP_temperature;BMP_pressure;BME280_temperature;BME280_humidity;BME280_pressure;Samples;Min_cycle;Max_cycle;Signal;HPM_P1;HPM_P2
2021/04/29 00:00:19;;;;;;;28.73;15.07;;;;;;;10.20;96.87;97235.34;5073209;28;20049;-75
2021/04/29 00:02:48;;;;;;;24.15;13.80;;;;;;;10.12;97.08;97234.13;5073794;28;20433;-75
2021/04/29 00:05:19;;;;;;;23.65;14.65;;;;;;;10.03;97.36;97222.34;5072927;28;20374;-74
2021/04/29 00:07:45;;;;;;;28.38;15.02;;;;;;;10.04;97.98;97226.69;5073511;28;20024;-75
2021/04/29 00:10:14;;;;;;;25.48;15.48;;;;;;;9.97;98.30;97222.75;5072852;28;20027;-74
2021/04/29 00:12:40;;;;;;;24.75;15.43;;;;;;;9.93;98.60;97221.78;5072637;28;20037;-76
2021/04/29 00:15:09;;;;;;;23.90;14.30;;;;;;;9.91;98.82;97218.53;5072794;28;20523;-77
2021/04/29 00:17:34;;;;;;;25.00;15.25;;;;;;;9.87;98.97;97217.53;5072802;28;20496;-74
2021/04/29 00:20:00;;;;;;;23.70;14.25;;;;;;;9.86;99.10;97215.94;5071803;28;20091;-76
2021/04/29 00:22:25;;;;;;;22.15;14.93;;;;;;;9.90;98.75;97222.41;5052051;28;20557;-76
2021/04/29 00:24:50;;;;;;;21.75;13.32;;;;;;;9.91;98.78;97222.06;5052295;28;20021;-74
2021/04/29 00:27:17;;;;;;;26.45;14.85;;;;;;;9.93;98.69;97222.56;5052214;28;20037;-75
2021/04/29 00:29:42;;;;;;;21.05;14.80;;;;;;;9.96;98.56;97223.91;5052214;28;20072;-75
2021/04/29 00:32:08;;;;;;;24.70;14.15;;;;;;;10.02;98.16;97220.72;5052862;28;20056;-75
2021/04/29 00:34:33;;;;;;;26.83;16.52;;;;;;;10.04;98.09;97228.59;5052192;28;20017;-75
2021/04/29 00:36:59;;;;;;;24.05;14.45;;;;;;;10.06;97.90;97229.09;5058218;28;20098;-75
2021/04/29 00:39:24;;;;;;;22.55;14.88;;;;;;;9.99;98.58;97220.53;5070902;28;20020;-74
2021/04/29 00:41:51;;;;;;;22.23;15.25;;;;;;;9.99;98.64;97226.78;5066146;28;20144;-74
2021/04/29 00:44:16;;;;;;;21.20;13.65;;;;;;;9.94;98.91;97226.13;5052762;28;20029;-75
2021/04/29 00:46:42;;;;;;;19.45;13.10;;;;;;;9.93;99.01;97221.78;5064477;28;20448;-75
2021/04/29 00:49:07;;;;;;;19.73;13.90;;;;;;;9.92;99.20;97226.44;5070858;28;20028;-75
2021/04/29 00:51:32;;;;;;;19.40;12.88;;;;;;;9.92;99.79;97220.97;5071865;28;20020;-75
2021/04/29 00:53:58;;;;;;;17.38;11.80;;;;;;;9.90;99.90;97225.91;5070173;28;20055;-75
2021/04/29 00:56:25;;;;;;;20.05;13.27;;;;;;;9.88;100.00;97225.44;5071744;28;20113;-73
2021/04/29 00:58:51;;;;;;;23.45;12.88;;;;;;;9.95;100.00;97230.47;5059217;28;20033;-75
2021/04/29 01:01:17;;;;;;;20.13;12.93;;;;;;;9.88;100.00;97224.63;5051865;28;20044;-74
2021/04/29 01:03:50;;;;;;;22.98;13.18;;;;;;;9.96;100.00;97240.28;5051891;28;20469;-76
2021/04/29 01:06:21;;;;;;;22.45;14.05;;;;;;;9.96;100.00;97232.09;5058102;28;20029;-75
2021/04/29 01:09:04;;;;;;;19.38;13.30;;;;;;;9.89;100.00;97228.97;5072255;28;20053;-75
2021/04/29 01:11:33;;;;;;;22.55;14.15;;;;;;;9.83;100.00;97232.94;5071897;28;20058;-75
2021/04/29 01:14:04;;;;;;;22.13;13.13;;;;;;;9.84;100.00;97229.06;5071549;28;20116;-75
2021/04/29 01:16:30;;;;;;;20.25;13.07;;;;;;;9.87;100.00;97229.28;5070966;28;20060;-75
2021/04/29 01:18:57;;;;;;;16.98;12.13;;;;;;;9.91;100.00;97232.19;5071282;28;20067;-74
2021/04/29 01:21:27;;;;;;;17.63;13.18;;;;;;;9.91;100.00;97232.19;5071173;28;20064;-76
2021/04/29 01:24:09;;;;;;;20.00;12.57;;;;;;;9.87;100.00;97234.72;5071405;28;20024;-74
2021/04/29 01:26:48;;;;;;;19.73;12.57;;;;;;;9.86;100.00;97233.13;5071294;28;20078;-74
2021/04/29 01:29:17;;;;;;;21.67;13.10;;;;;;;9.90;100.00;97241.53;5072060;28;20059;-74
2021/04/29 01:31:45;;;;;;;23.52;15.68;;;;;;;9.84;100.00;97234.53;5071781;28;20060;-76
2021/04/29 01:34:13;;;;;;;25.13;14.65;;;;;;;9.77;100.00;97228.72;5072085;28;20082;-76
2021/04/29 01:36:40;;;;;;;23.17;13.70;;;;;;;9.75;100.00;97237.19;5071599;28;20403;-76
2021/04/29 01:39:09;;;;;;;24.23;14.68;;;;;;;9.78;100.00;97230.31;5072194;28;20028;-75
2021/04/29 01:41:38;;;;;;;19.58;13.63;;;;;;;9.82;100.00;97232.13;5071684;28;20104;-74
2021/04/29 01:44:07;;;;;;;20.60;13.05;;;;;;;9.80;100.00;97228.09;5072029;28;20094;-75
2021/04/29 01:46:34;;;;;;;26.60;15.80;;;;;;;9.75;100.00;97230.91;5071699;28;20025;-75
2021/04/29 01:49:01;;;;;;;29.75;16.25;;;;;;;9.71;100.00;97224.47;5071705;28;20415;-75
2021/04/29 01:51:27;;;;;;;24.00;15.05;;;;;;;9.76;100.00;97216.16;5072257;28;20070;-75
2021/04/29 01:53:52;;;;;;;27.90;16.27;;;;;;;9.81;100.00;97218.75;5072029;28;20020;-74
2021/04/29 01:56:19;;;;;;;23.30;15.98;;;;;;;9.86;100.00;97218.66;5071562;28;20043;-75
2021/04/29 01:58:44;;;;;;;26.50;15.93;;;;;;;9.83;100.00;97222.00;5072183;28;20037;-75
2021/04/29 02:01:10;;;;;;;26.35;17.60;;;;;;;9.73;100.00;97203.94;5073012;28;20024;-79
2021/04/29 02:03:35;;;;;;;20.67;15.10;;;;;;;9.82;100.00;97223.94;5074018;28;20074;-74
2021/04/29 02:06:00;;;;;;;32.45;16.48;;;;;;;9.80;100.00;97223.44;5074311;28;20020;-76
2021/04/29 02:08:26;;;;;;;26.60;16.42;;;;;;;9.77;100.00;97215.88;5072886;28;20518;-75
2021/04/29 02:10:52;;;;;;;26.92;15.90;;;;;;;9.84;100.00;97218.16;5071250;28;20036;-76
2021/04/29 02:13:18;;;;;;;23.77;15.68;;;;;;;9.79;100.00;97221.00;5070990;28;20031;-75
2021/04/29 02:16:10;;;;;;;25.65;16.00;;;;;;;9.79;100.00;97221.00;5070703;28;20029;-75
2021/04/29 02:18:38;;;;;;;27.70;15.55;;;;;;;9.78;100.00;97214.72;5064182;28;20094;-74
2021/04/29 02:21:04;;;;;;;25.20;14.88;;;;;;;9.77;100.00;97217.78;5086621;28;20028;-75
2021/04/29 02:23:31;;;;;;;23.33;16.17;;;;;;;9.72;100.00;97224.16;5070827;28;20039;-75
2021/04/29 02:25:59;;;;;;;29.80;17.88;;;;;;;9.72;100.00;97210.50;5070386;28;20048;-75
2021/04/29 02:28:25;;;;;;;22.65;15.88;;;;;;;9.64;100.00;97212.06;5071034;28;20039;-76
2021/04/29 02:30:51;;;;;;;26.13;16.55;;;;;;;9.60;100.00;97211.06;5070883;28;20028;-75
2021/04/29 02:33:20;;;;;;;25.83;13.93;;;;;;;9.65;100.00;97204.66;5071333;28;20031;-75
2021/04/29 02:35:46;;;;;;;30.17;15.77;;;;;;;9.72;100.00;97215.16;5071213;28;20518;-75
2021/04/29 02:38:16;;;;;;;26.23;17.08;;;;;;;9.71;100.00;97210.81;5071793;28;20036;-76
2021/04/29 02:40:43;;;;;;;22.90;16.15;;;;;;;9.71;100.00;97208.09;5070791;28;20116;-75
2021/04/29 02:43:11;;;;;;;23.27;15.57;;;;;;;9.70;100.00;97210.00;5070879;28;20052;-75
2021/04/29 02:45:37;;;;;;;27.23;17.55;;;;;;;9.72;100.00;97206.97;5071292;28;20024;-74
2021/04/29 02:48:03;;;;;;;23.55;16.77;;;;;;;9.65;100.00;97204.66;5070638;28;20028;-75
2021/04/29 02:50:29;;;;;;;25.83;14.98;;;;;;;9.64;100.00;97203.88;5069254;28;20074;-76
2021/04/29 02:52:57;;;;;;;25.30;16.60;;;;;;;9.65;100.00;97205.47;5071612;28;20040;-76
2021/04/29 02:55:24;;;;;;;27.70;16.33;;;;;;;9.68;100.00;97204.03;5086381;28;20035;-74
2021/04/29 02:57:49;;;;;;;25.27;16.02;;;;;;;9.63;100.00;97207.72;5070620;28;20044;-75
2021/04/29 03:00:18;;;;;;;24.23;15.07;;;;;;;9.63;100.00;97202.25;5070877;28;20409;-75
2021/04/29 03:02:43;;;;;;;24.17;16.20;;;;;;;9.60;100.00;97202.84;5071094;28;20109;-76
2021/04/29 03:05:11;;;;;;;27.52;17.35;;;;;;;9.61;100.00;97201.75;5071312;28;20028;-76
2021/04/29 03:07:38;;;;;;;29.60;17.27;;;;;;;9.66;100.00;97193.44;5071269;28;20020;-76
2021/04/29 03:10:06;;;;;;;26.63;15.48;;;;;;;9.66;100.00;97195.34;5071658;28;20082;-75
2021/04/29 03:12:31;;;;;;;24.60;15.50;;;;;;;9.61;100.00;97193.56;5071586;28;20394;-76
2021/04/29 03:14:57;;;;;;;25.42;17.70;;;;;;;9.60;100.00;97207.50;5071383;28;20058;-76
2021/04/29 03:17:22;;;;;;;24.38;16.98;;;;;;;9.67;100.00;97211.44;5071292;28;20056;-74
2021/04/29 03:19:48;;;;;;;29.27;16.70;;;;;;;9.65;100.00;97200.00;5072150;28;20039;-76
2021/04/29 03:22:14;;;;;;;25.83;16.08;;;;;;;9.72;100.00;97194.13;5074880;28;20028;-76
2021/04/29 03:24:39;;;;;;;25.15;15.52;;;;;;;9.80;100.00;97207.06;5074395;28;20025;-75
2021/04/29 03:27:05;;;;;;;24.33;15.40;;;;;;;9.85;100.00;97214.31;5074212;28;20487;-74
2021/04/29 03:29:30;;;;;;;22.67;14.07;;;;;;;9.83;100.00;97211.91;5074263;28;20012;-75
2021/04/29 03:31:56;;;;;;;23.65;14.38;;;;;;;9.87;100.00;97212.06;5074626;28;20178;-76
2021/04/29 03:34:21;;;;;;;24.52;16.92;;;;;;;9.81;100.00;97213.31;5074173;28;20032;-76
2021/04/29 03:36:46;;;;;;;22.75;14.45;;;;;;;9.78;100.00;97208.47;5074209;28;20021;-75
2021/04/29 03:39:12;;;;;;;25.60;16.30;;;;;;;9.75;100.00;97214.53;5074892;28;20501;-76
2021/04/29 03:41:37;;;;;;;25.83;16.88;;;;;;;9.83;100.00;97222.00;5073844;28;20116;-74
2021/04/29 03:44:03;;;;;;;24.40;16.50;;;;;;;9.84;100.00;97215.41;5073690;28;20393;-75
2021/04/29 03:46:28;;;;;;;25.90;15.65;;;;;;;9.81;100.00;97214.13;5073920;28;20040;-75
2021/04/29 03:48:54;;;;;;;22.92;15.70;;;;;;;9.76;100.00;97218.91;5073959;28;20100;-75
2021/04/29 03:51:19;;;;;;;25.00;15.77;;;;;;;9.72;100.00;97220.63;5073564;28;20511;-77
2021/04/29 03:53:44;;;;;;;23.42;14.68;;;;;;;9.79;100.00;97210.91;5072457;28;20052;-75
2021/04/29 03:56:10;;;;;;;22.92;14.25;;;;;;;9.82;100.00;97214.94;5072620;28;20024;-75
2021/04/29 03:58:35;;;;;;;20.33;14.25;;;;;;;9.77;100.00;97217.78;5073448;28;20021;-75
2021/04/29 04:01:01;;;;;;;22.63;16.67;;;;;;;9.78;100.00;97219.38;5073924;28;20040;-76
2021/04/29 04:03:26;;;;;;;23.10;13.63;;;;;;;9.88;100.00;97224.63;5073608;28;20024;-75
2021/04/29 04:05:51;;;;;;;21.60;13.95;;;;;;;9.83;100.00;97222.00;5072020;28;20059;-75
2021/04/29 04:08:17;;;;;;;23.02;15.95;;;;;;;9.84;100.00;97229.06;5073743;28;20078;-73
2021/04/29 04:10:42;;;;;;;19.80;15.00;;;;;;;9.87;100.00;97228.44;5073938;28;20071;-75
2021/04/29 04:13:16;;;;;;;25.33;15.05;;;;;;;9.83;100.00;97227.47;5069067;28;21221;-76
2021/04/29 04:15:42;;;;;;;23.08;15.57;;;;;;;9.83;100.00;97224.75;5053019;28;20111;-76
2021/04/29 04:18:07;;;;;;;21.55;14.60;;;;;;;9.92;100.00;97234.63;5068053;28;20124;-75
2021/04/29 04:20:33;;;;;;;23.98;14.88;;;;;;;9.82;100.00;97236.78;5052794;28;20107;-75
2021/04/29 04:22:58;;;;;;;25.38;14.35;;;;;;;9.78;100.00;97236.59;5052574;28;20029;-74
2021/04/29 04:25:23;;;;;;;25.58;14.63;;;;;;;9.85;100.00;97242.44;5051653;28;20020;-75
2021/04/29 04:27:49;;;;;;;24.85;14.82;;;;;;;10.00;100.00;97244.81;5053105;28;20025;-75
2021/04/29 04:30:14;;;;;;;19.88;14.35;;;;;;;10.03;100.00;97248.84;5052824;28;20029;-75
2021/04/29 04:32:40;;;;;;;22.95;15.55;;;;;;;9.96;100.00;97243.81;5052807;28;20076;-75
2021/04/29 04:35:07;;;;;;;22.92;14.40;;;;;;;9.94;100.00;97240.59;5052419;28;20057;-74
2021/04/29 04:37:32;;;;;;;21.08;14.68;;;;;;;9.81;100.00;97224.22;5051670;28;20025;-76
2021/04/29 04:39:57;;;;;;;20.85;13.82;;;;;;;9.82;100.00;97248.50;5053522;28;20059;-75
2021/04/29 04:42:23;;;;;;;25.33;16.58;;;;;;;9.71;100.00;97246.31;5052526;28;20081;-74
2021/04/29 04:44:48;;;;;;;24.20;15.93;;;;;;;9.77;100.00;97250.56;5052638;28;20025;-74
2021/04/29 04:47:14;;;;;;;27.15;16.23;;;;;;;9.79;100.00;97256.50;5053011;28;20029;-74
2021/04/29 04:49:39;;;;;;;30.02;18.55;;;;;;;9.73;100.00;97252.28;5052616;28;20036;-73
2021/04/29 04:52:05;;;;;;;39.63;26.40;;;;;;;9.76;100.00;97248.94;5052686;28;20021;-73
2021/04/29 04:54:30;;;;;;;35.47;22.75;;;;;;;9.73;100.00;97239.44;5053054;28;20118;-74
2021/04/29 04:56:55;;;;;;;32.35;20.25;;;;;;;9.81;100.00;97252.34;5052674;28;20021;-75
2021/04/29 04:59:21;;;;;;;27.40;17.30;;;;;;;9.94;100.00;97245.22;5051313;28;20049;-74
2021/04/29 05:01:46;;;;;;;29.05;18.38;;;;;;;10.00;100.00;97249.47;5058467;28;20468;-74
2021/04/29 05:04:12;;;;;;;23.60;15.85;;;;;;;10.15;100.00;97257.31;5062250;28;20115;-74
2021/04/29 05:06:40;;;;;;;22.05;16.27;;;;;;;10.26;100.00;97246.97;5053101;28;20035;-77
2021/04/29 05:09:06;;;;;;;23.88;15.70;;;;;;;10.38;100.00;97239.00;5070660;28;20582;-75
2021/04/29 05:11:32;;;;;;;23.95;15.20;;;;;;;10.42;100.00;97246.28;5072116;28;20044;-75
2021/04/29 05:13:57;;;;;;;19.75;15.15;;;;;;;10.45;100.00;97245.66;5071878;28;20480;-76
2021/04/29 05:16:23;;;;;;;19.15;14.13;;;;;;;10.38;100.00;97245.28;5071664;28;20024;-74
2021/04/29 05:18:48;;;;;;;20.33;14.55;;;;;;;10.51;100.00;97241.69;5071827;28;20024;-74
2021/04/29 05:21:14;;;;;;;20.13;14.30;;;;;;;10.48;100.00;97247.78;5071616;28;20052;-75
2021/04/29 05:23:39;;;;;;;21.05;15.32;;;;;;;10.34;100.00;97247.03;5070265;28;20056;-75
2021/04/29 05:26:06;;;;;;;25.63;15.93;;;;;;;10.34;100.00;97247.03;5069843;28;20037;-74
2021/04/29 05:28:31;;;;;;;21.50;14.85;;;;;;;10.36;100.00;97247.53;5072358;28;20017;-76
2021/04/29 05:30:56;;;;;;;24.77;16.23;;;;;;;10.26;100.00;97220.44;5071865;28;20059;-75
2021/04/29 05:33:22;;;;;;;35.97;24.88;;;;;;;10.63;100.00;97241.09;5071670;28;20032;-74
2021/04/29 05:35:47;;;;;;;28.58;21.02;;;;;;;10.71;100.00;97235.66;5071182;28;20635;-75
2021/04/29 05:38:13;;;;;;;31.90;20.17;;;;;;;10.95;100.00;97245.47;5071164;28;20117;-74
2021/04/29 05:40:39;;;;;;;24.48;16.38;;;;;;;10.86;100.00;97247.34;5074532;28;20032;-75
2021/04/29 05:43:05;;;;;;;21.35;13.10;;;;;;;11.01;100.00;97241.47;5070311;28;20107;-76
2021/04/29 05:45:30;;;;;;;19.90;14.00;;;;;;;11.12;100.00;97251.00;5071749;28;20500;-75
2021/04/29 05:47:56;;;;;;;20.05;13.23;;;;;;;10.84;100.00;97246.88;5072266;28;20481;-75
2021/04/29 05:50:21;;;;;;;20.50;13.57;;;;;;;10.73;100.00;97232.63;5072949;28;20035;-75
2021/04/29 05:52:46;;;;;;;19.05;13.00;;;;;;;10.85;99.92;97243.78;5072129;28;20020;-75
2021/04/29 05:55:12;;;;;;;21.45;14.95;;;;;;;10.94;99.65;97247.38;5071477;28;20036;-74
2021/04/29 05:57:37;;;;;;;23.60;13.90;;;;;;;10.95;100.00;97242.72;5057055;28;20060;-74
2021/04/29 06:00:07;;;;;;;21.38;14.60;;;;;;;10.98;100.00;97239.34;5055309;28;20053;-76
2021/04/29 06:02:36;;;;;;;23.77;13.65;;;;;;;10.97;100.00;97235.00;5052248;28;20077;-77
2021/04/29 06:05:02;;;;;;;18.23;13.80;;;;;;;11.08;99.49;97228.13;5051494;28;20401;-75
2021/04/29 06:07:28;;;;;;;22.50;14.90;;;;;;;11.17;99.07;97218.81;5053065;28;20052;-75
2021/04/29 06:09:53;;;;;;;19.38;14.30;;;;;;;11.15;99.38;97236.69;5051804;28;22168;-73
2021/04/29 06:12:19;;;;;;;26.20;15.57;;;;;;;11.13;100.00;97230.72;5052749;28;20017;-80
2021/04/29 06:14:44;;;;;;;24.35;17.48;;;;;;;10.82;100.00;97240.88;5067433;28;20040;-77
2021/04/29 06:17:10;;;;;;;25.27;17.42;;;;;;;10.75;100.00;97233.13;5052064;28;20104;-78
2021/04/29 06:19:36;;;;;;;28.35;17.83;;;;;;;10.64;100.00;97237.25;5052812;28;20151;-87
2021/04/29 06:22:01;;;;;;;32.83;19.95;;;;;;;10.59;100.00;97240.91;5054333;28;20067;-85
2021/04/29 06:24:27;;;;;;;27.15;17.45;;;;;;;10.64;100.00;97249.00;5052627;28;20083;-78
2021/04/29 06:26:52;;;;;;;26.25;17.50;;;;;;;10.53;100.00;97238.63;5051803;28;20025;-83
2021/04/29 06:29:20;;;;;;;29.88;18.95;;;;;;;10.77;100.00;97243.75;5052060;28;20021;-79
2021/04/29 06:31:46;;;;;;;27.50;17.05;;;;;;;10.89;100.00;97249.44;5068269;28;20033;-92
2021/04/29 06:34:11;;;;;;;25.10;18.42;;;;;;;10.91;100.00;97256.22;5062804;28;20044;-86
2021/04/29 06:36:37;;;;;;;29.10;16.63;;;;;;;10.92;100.00;97249.63;5070347;28;20067;-82
2021/04/29 06:39:04;;;;;;;24.88;16.85;;;;;;;10.95;100.00;97251.75;5071825;28;20473;-93
2021/04/29 06:41:29;;;;;;;22.20;15.07;;;;;;;11.09;99.86;97249.69;5067976;28;20046;-82
2021/04/29 06:43:55;;;;;;;28.70;18.50;;;;;;;11.45;97.87;97235.81;5062943;28;20088;-90
2021/04/29 06:46:20;;;;;;;29.13;17.95;;;;;;;11.60;97.15;97250.97;5053165;28;20029;-81
2021/04/29 06:48:46;;;;;;;26.63;18.42;;;;;;;11.69;97.15;97238.91;5068541;28;20035;-76
2021/04/29 06:51:11;;;;;;;29.00;16.42;;;;;;;11.93;95.34;97241.25;5073836;28;20025;-88
2021/04/29 06:53:37;;;;;;;23.65;15.50;;;;;;;12.17;93.63;97236.09;5075121;28;20626;-76
2021/04/29 06:56:02;;;;;;;24.33;17.20;;;;;;;12.57;92.12;97231.19;5072262;28;20032;-75
2021/04/29 06:58:28;;;;;;;22.38;15.00;;;;;;;12.69;90.86;97236.00;5072654;28;20024;-75
2021/04/29 07:00:54;;;;;;;22.63;14.20;;;;;;;13.16;89.01;97242.34;5072172;28;20051;-75
2021/04/29 07:03:20;;;;;;;23.95;14.90;;;;;;;13.05;88.33;97241.06;5072598;28;20041;-74
2021/04/29 07:05:46;;;;;;;22.02;15.43;;;;;;;12.94;89.54;97248.06;5087673;28;20096;-74
2021/04/29 07:08:12;;;;;;;24.55;15.65;;;;;;;12.82;89.76;97235.81;5072127;28;20083;-75
2021/04/29 07:10:38;;;;;;;23.75;14.55;;;;;;;12.99;88.70;97228.66;5072099;28;20025;-74
2021/04/29 07:13:04;;;;;;;20.40;14.70;;;;;;;12.97;88.99;97228.97;5071952;28;20426;-75
2021/04/29 07:15:29;;;;;;;21.05;14.88;;;;;;;13.59;87.35;97242.16;5070681;28;20488;-74
2021/04/29 07:17:58;;;;;;;26.05;14.48;;;;;;;13.59;85.80;97239.41;5071763;28;20037;-74
2021/04/29 07:20:24;;;;;;;20.10;13.57;;;;;;;14.36;83.31;97241.59;5071653;28;20024;-76
2021/04/29 07:22:51;;;;;;;18.45;13.77;;;;;;;15.17;80.22;97243.66;5071823;28;20156;-76
2021/04/29 07:25:16;;;;;;;16.23;12.50;;;;;;;15.60;77.82;97232.13;5067119;28;20032;-75
2021/04/29 07:27:42;;;;;;;15.85;11.43;;;;;;;15.21;78.35;97252.88;5072040;28;20021;-76
2021/04/29 07:30:09;;;;;;;20.77;12.27;;;;;;;14.42;81.20;97259.50;5071441;28;20127;-85
2021/04/29 07:32:37;;;;;;;18.85;11.90;;;;;;;14.22;81.97;97241.06;5064858;28;20028;-76
2021/04/29 07:35:03;;;;;;;22.38;13.50;;;;;;;13.94;83.59;97255.31;5071790;28;20020;-85
2021/04/29 07:37:29;;;;;;;18.23;12.20;;;;;;;14.45;81.84;97261.59;5070795;28;20024;-75
2021/04/29 07:39:55;;;;;;;18.13;12.50;;;;;;;15.14;79.59;97263.63;5090158;28;20025;-74
2021/04/29 07:42:20;;;;;;;18.20;12.07;;;;;;;15.21;77.93;97263.88;5069797;28;20020;-75
2021/04/29 07:44:46;;;;;;;16.20;11.80;;;;;;;14.69;79.34;97267.19;5070484;28;20020;-73
2021/04/29 07:47:11;;;;;;;15.40;10.75;;;;;;;14.80;79.38;97267.56;5060846;28;20028;-75
2021/04/29 07:49:37;;;;;;;23.60;11.63;;;;;;;14.61;80.16;97261.75;5070588;28;20126;-75
2021/04/29 07:52:02;;;;;;;21.00;12.40;;;;;;;14.45;81.20;97264.34;5070162;28;20044;-75
2021/04/29 07:54:30;;;;;;;18.85;13.15;;;;;;;14.24;82.84;97247.00;5072659;28;20017;-78
2021/04/29 07:56:56;;;;;;;19.02;12.38;;;;;;;13.87;84.33;97265.25;5070191;28;20074;-75
2021/04/29 07:59:21;;;;;;;19.02;13.23;;;;;;;13.88;84.38;97264.91;5071559;28;20049;-74
2021/04/29 08:01:47;;;;;;;22.40;15.13;;;;;;;13.52;86.00;97259.16;5067649;28;20123;-75
2021/04/29 08:04:12;;;;;;;19.75;13.65;;;;;;;13.58;86.66;97263.31;5067373;28;20175;-74
2021/04/29 08:06:38;;;;;;;18.73;13.52;;;;;;;14.00;85.21;97268.88;5058867;28;20036;-75
2021/04/29 08:09:04;;;;;;;21.10;14.48;;;;;;;14.20;84.61;97270.81;5071093;28;20029;-74
2021/04/29 08:11:29;;;;;;;18.38;13.38;;;;;;;13.96;84.46;97271.50;5087269;28;20115;-74
2021/04/29 08:13:55;;;;;;;18.52;12.82;;;;;;;13.95;85.51;97267.94;5070144;28;20020;-74
2021/04/29 08:16:20;;;;;;;18.52;14.15;;;;;;;13.86;88.03;97280.13;5073508;28;20028;-75
2021/04/29 08:18:49;;;;;;;15.90;11.63;;;;;;;13.77;87.77;97271.13;5072874;28;20477;-74
2021/04/29 08:21:14;;;;;;;16.30;11.15;;;;;;;13.94;88.15;97276.50;5068328;28;20025;-81
2021/04/29 08:23:40;;;;;;;18.85;12.35;;;;;;;14.45;85.14;97278.09;5070064;28;20031;-76
2021/04/29 08:26:05;;;;;;;18.80;13.25;;;;;;;15.15;82.57;97282.59;5070397;28;20081;-76
2021/04/29 08:28:31;;;;;;;13.70;8.82;;;;;;;15.91;77.46;97285.53;5071044;28;20582;-78
2021/04/29 08:30:56;;;;;;;11.82;8.90;;;;;;;15.84;77.50;97279.81;5070497;28;20123;-75
2021/04/29 08:33:22;;;;;;;14.65;10.45;;;;;;;16.12;76.04;97290.91;5070846;28;20024;-75
2021/04/29 08:35:48;;;;;;;16.88;11.35;;;;;;;15.50;78.63;97289.34;5065289;28;20074;-75
2021/04/29 08:38:14;;;;;;;14.32;10.30;;;;;;;15.17;80.54;97290.50;5076338;28;20423;-77
2021/04/29 08:40:39;;;;;;;13.73;8.23;;;;;;;14.97;80.88;97289.44;5073356;28;20024;-75
2021/04/29 08:43:05;;;;;;;11.23;8.68;;;;;;;14.98;81.62;97288.28;5071352;28;20028;-76
2021/04/29 08:45:33;;;;;;;12.55;9.18;;;;;;;14.81;81.56;97282.97;5070372;28;20103;-76
2021/04/29 08:47:58;;;;;;;9.98;8.98;;;;;;;14.49;83.36;97295.56;5070314;28;20522;-79
2021/04/29 08:50:28;;;;;;;10.82;7.97;;;;;;;14.62;83.54;97293.66;5069856;28;20016;-75
2021/04/29 08:52:55;;;;;;;13.75;9.27;;;;;;;14.49;84.42;97287.31;5069299;28;20031;-76
2021/04/29 08:55:26;;;;;;;8.98;7.28;;;;;;;14.41;85.56;97293.66;5069745;28;20027;-78
2021/04/29 08:57:52;;;;;;;9.88;6.70;;;;;;;14.38;86.82;97291.59;5069648;28;20033;-75
2021/04/29 09:00:19;;;;;;;9.13;6.70;;;;;;;14.38;87.29;97292.38;5069474;28;20036;-79
2021/04/29 09:02:45;;;;;;;7.88;5.22;;;;;;;14.23;88.25;97297.66;5062447;28;20570;-75
2021/04/29 09:05:13;;;;;;;5.63;5.03;;;;;;;14.06;90.23;97295.06;5069430;28;20024;-76
2021/04/29 09:07:39;;;;;;;7.22;5.57;;;;;;;13.89;91.91;97301.44;5074639;28;20025;-75
2021/04/29 09:10:07;;;;;;;7.00;5.45;;;;;;;13.87;93.09;97312.81;5070159;28;20477;-75
2021/04/29 09:12:43;;;;;;;6.07;4.45;;;;;;;13.84;94.22;97309.91;5069080;28;20084;-75
2021/04/29 09:15:21;;;;;;;7.55;5.63;;;;;;;13.94;95.94;97310.31;5068189;28;20088;-78
2021/04/29 09:18:08;;;;;;;7.28;5.75;;;;;;;14.15;93.26;97313.09;5082737;28;20461;-75
2021/04/29 09:20:36;;;;;;;7.88;5.82;;;;;;;14.22;93.33;97316.09;5069291;28;20500;-76
2021/04/29 09:23:05;;;;;;;6.63;5.70;;;;;;;14.36;92.78;97313.13;5069387;28;20451;-77
2021/04/29 09:25:35;;;;;;;7.82;6.10;;;;;;;14.51;91.76;97309.78;5068367;28;20020;-77
2021/04/29 09:28:00;;;;;;;6.35;5.30;;;;;;;14.63;91.94;97307.06;5064923;28;20119;-76
2021/04/29 09:30:28;;;;;;;7.70;5.32;;;;;;;14.96;90.45;97318.94;5066280;28;20116;-76
2021/04/29 09:32:59;;;;;;;8.27;5.82;;;;;;;15.35;88.14;97313.94;5069418;28;20107;-75
2021/04/29 09:35:25;;;;;;;5.97;4.47;;;;;;;15.76;85.36;97311.03;5067307;28;20020;-82
2021/04/29 09:37:51;;;;;;;4.03;3.28;;;;;;;16.23;82.00;97313.31;5069343;28;20078;-77
2021/04/29 09:40:16;;;;;;;5.68;3.78;;;;;;;16.29;82.59;97317.47;5062477;28;20028;-75
2021/04/29 09:42:45;;;;;;;6.07;2.88;;;;;;;15.57;84.75;97307.25;5067995;28;20031;-75
2021/04/29 09:45:17;;;;;;;3.35;2.78;;;;;;;15.47;85.80;97311.25;5066188;28;20112;-74
2021/04/29 09:47:56;;;;;;;4.20;2.60;;;;;;;15.60;85.39;97310.09;5069239;28;20068;-77
2021/04/29 09:50:36;;;;;;;5.53;3.47;;;;;;;15.37;86.51;97319.94;5065794;28;20532;-76
2021/04/29 09:53:07;;;;;;;6.35;3.50;;;;;;;14.99;88.00;97311.94;5067909;28;20074;-76
2021/04/29 09:55:36;;;;;;;7.10;3.95;;;;;;;14.87;88.11;97320.97;5066514;28;20487;-79
2021/04/29 09:58:16;;;;;;;6.70;4.38;;;;;;;14.70;89.04;97307.34;5068730;28;20020;-76
2021/04/29 10:00:50;;;;;;;6.45;3.95;;;;;;;14.78;89.26;97317.50;5067556;28;20159;-75
2021/04/29 10:03:20;;;;;;;7.30;4.20;;;;;;;14.88;88.99;97317.03;5066306;28;20024;-77
2021/04/29 10:05:50;;;;;;;6.47;4.43;;;;;;;14.79;89.76;97318.25;5068535;28;20020;-77
2021/04/29 10:08:16;;;;;;;4.50;3.60;;;;;;;14.70;89.64;97325.81;5068156;28;20082;-75
2021/04/29 10:10:47;;;;;;;4.50;3.65;;;;;;;14.84;89.77;97329.09;5068192;28;20020;-77
2021/04/29 10:13:14;;;;;;;6.43;3.90;;;;;;;15.02;89.43;97328.59;5069284;28;20078;-79
2021/04/29 10:15:43;;;;;;;3.88;3.45;;;;;;;15.41;88.15;97323.63;5069600;28;20066;-76
2021/04/29 10:18:12;;;;;;;4.57;3.20;;;;;;;15.71;86.52;97325.06;5069404;28;20032;-77
2021/04/29 10:20:48;;;;;;;8.10;3.90;;;;;;;16.12;84.39;97315.75;5069748;28;20032;-79
2021/04/29 10:23:17;;;;;;;3.65;3.22;;;;;;;15.80;84.14;97316.69;5069254;28;20738;-75
2021/04/29 10:25:49;;;;;;;3.47;2.97;;;;;;;16.19;82.88;97310.47;5068987;28;20537;-77
2021/04/29 10:28:15;;;;;;;2.67;2.47;;;;;;;16.42;81.90;97313.50;5069209;28;20070;-78
2021/04/29 10:30:41;;;;;;;5.32;3.63;;;;;;;16.69;80.81;97307.25;5072061;28;20025;-76
2021/04/29 10:33:16;;;;;;;5.93;3.58;;;;;;;16.47;81.10;97307.75;5074030;28;20469;-76
2021/04/29 10:35:59;;;;;;;6.13;3.95;;;;;;;16.40;82.04;97310.28;5076672;28;20112;-82
2021/04/29 10:38:35;;;;;;;5.78;4.65;;;;;;;16.04;83.48;97313.91;5074743;28;20454;-76
2021/04/29 10:41:05;;;;;;;6.22;3.38;;;;;;;15.98;84.45;97305.06;5074234;28;20082;-76
2021/04/29 10:43:36;;;;;;;4.75;3.33;;;;;;;16.40;81.88;97310.28;5089003;28;20058;-79
2021/04/29 10:46:04;;;;;;;4.10;2.75;;;;;;;16.69;80.74;97306.44;5072760;28;20119;-78
2021/04/29 10:48:31;;;;;;;3.58;2.58;;;;;;;17.16;79.13;97312.91;5072981;28;20359;-76
2021/04/29 10:51:05;;;;;;;3.25;2.38;;;;;;;17.21;77.96;97304.34;5073457;28;20480;-78
2021/04/29 10:53:32;;;;;;;2.20;1.98;;;;;;;17.53;76.79;97303.22;5073909;28;20063;-76
2021/04/29 10:56:06;;;;;;;3.47;2.33;;;;;;;17.59;74.93;97306.56;5074836;28;20048;-78
2021/04/29 10:58:32;;;;;;;3.90;1.30;;;;;;;17.67;74.01;97305.56;5073170;28;20485;-76
2021/04/29 11:01:09;;;;;;;3.38;1.52;;;;;;;18.04;71.97;97290.25;5072790;28;20028;-76
2021/04/29 11:03:46;;;;;;;4.07;1.65;;;;;;;18.21;71.12;97289.06;5073228;28;20025;-79
2021/04/29 11:06:14;;;;;;;2.65;1.60;;;;;;;18.94;67.98;97282.72;5076532;28;20020;-79
2021/04/29 11:08:49;;;;;;;1.75;1.60;;;;;;;19.09;66.85;97279.88;5086829;28;20082;-80
2021/04/29 11:11:26;;;;;;;1.48;1.38;;;;;;;19.35;66.56;97281.13;5073487;28;20032;-79
2021/04/29 11:14:14;;;;;;;1.27;1.17;;;;;;;19.58;65.57;97279.16;5071266;28;20028;-79
2021/04/29 11:16:47;;;;;;;1.38;1.27;;;;;;;19.72;62.50;97279.44;5072405;28;20119;-77
2021/04/29 11:19:40;;;;;;;1.63;1.42;;;;;;;20.01;61.53;97275.94;5069610;28;20511;-76